Time;durP1;ratioP1;P1;durP2;ratioP2;P2;SDS_P1;SDS_P2;PMS_P1;PMS_P2;Temp;Humidity;BMP_temperature;BMP_pressure;BME280_temperature;BME280_humidity;BME280_pressure;Samples;Min_cycle;Max_cycle;Signal;HPM_P1;HPM_P2
2021/12/15 00:01:17;;;;;;;4.13;1.70;;;;;;;7.56;100.00;102024.56;5078991;28;20036;-48
2021/12/15 00:03:43;;;;;;;4.80;1.95;;;;;;;7.56;100.00;102030.72;5078945;28;20028;-50
2021/12/15 00:06:17;;;;;;;3.00;1.75;;;;;;;7.51;100.00;102034.69;5081411;28;20036;-48
2021/12/15 00:08:45;;;;;;;3.67;2.42;;;;;;;7.42;100.00;102038.97;5080036;28;20058;-52
2021/12/15 00:11:11;;;;;;;4.82;2.60;;;;;;;7.39;100.00;102034.78;5075150;28;20459;-48
2021/12/15 00:13:37;;;;;;;2.40;1.45;;;;;;;7.31;100.00;102031.16;5082439;28;20024;-49
2021/12/15 00:16:04;;;;;;;3.00;1.73;;;;;;;7.24;100.00;102038.75;5082019;28;20116;-47
2021/12/15 00:18:30;;;;;;;3.13;2.35;;;;;;;7.16;100.00;102033.28;5083545;28;20525;-51
2021/12/15 00:20:55;;;;;;;3.40;2.60;;;;;;;7.05;100.00;102031.56;5080614;28;20044;-48
2021/12/15 00:23:21;;;;;;;1.65;1.45;;;;;;;7.00;100.00;102033.75;5083491;28;20057;-47
2021/12/15 00:25:46;;;;;;;3.17;2.40;;;;;;;6.91;100.00;102039.81;5084447;28;20032;-49
2021/12/15 00:28:12;;;;;;;7.60;3.20;;;;;;;6.91;100.00;102034.53;5087044;28;20070;-46
2021/12/15 00:30:38;;;;;;;4.10;2.58;;;;;;;6.95;100.00;102042.06;5085320;28;20465;-47
2021/12/15 00:33:06;;;;;;;5.30;2.17;;;;;;;6.91;100.00;102039.81;5087532;28;20079;-48
2021/12/15 00:35:32;;;;;;;3.55;3.05;;;;;;;6.81;100.00;102044.16;5084190;28;20422;-47
2021/12/15 00:37:58;;;;;;;6.03;2.67;;;;;;;6.80;100.00;102038.06;5088192;28;20032;-47
2021/12/15 00:40:25;;;;;;;3.15;2.58;;;;;;;6.77;100.00;102036.53;5086048;28;20137;-47
2021/12/15 00:42:51;;;;;;;2.25;1.80;;;;;;;6.73;100.00;102043.00;5078686;28;20033;-47
2021/12/15 00:45:17;;;;;;;2.38;2.05;;;;;;;6.68;100.00;102037.28;5080637;28;20082;-46
2021/12/15 00:47:44;;;;;;;3.17;1.90;;;;;;;6.69;100.00;102035.50;5077422;28;20036;-49
2021/12/15 00:50:11;;;;;;;3.58;2.47;;;;;;;6.71;100.00;102038.81;5084938;28;20396;-47
2021/12/15 00:52:40;;;;;;;4.57;2.10;;;;;;;6.75;100.00;102048.16;5075262;28;20063;-47
2021/12/15 00:55:08;;;;;;;3.30;2.90;;;;;;;6.82;100.00;102035.31;5076041;28;20025;-47
2021/12/15 00:57:33;;;;;;;2.88;1.25;;;;;;;6.84;100.00;102050.03;5082335;28;20075;-49
2021/12/15 00:59:59;;;;;;;2.53;1.80;;;;;;;6.81;100.00;102054.72;5084855;28;20113;-50
2021/12/15 01:02:25;;;;;;;3.45;2.17;;;;;;;6.73;100.00;102043.00;5076841;28;20055;-46
2021/12/15 01:04:50;;;;;;;4.18;1.23;;;;;;;6.63;100.00;102046.53;5084208;28;20036;-51
2021/12/15 01:07:16;;;;;;;3.40;2.15;;;;;;;6.69;100.00;102046.03;5085943;28;20071;-50
2021/12/15 01:09:48;;;;;;;3.80;1.30;;;;;;;6.72;100.00;102036.06;5087861;28;20513;-49
2021/12/15 01:20:38;;;;;;;1.42;1.27;;;;;;;6.99;100.00;102037.34;5086933;28;20061;-47
2021/12/15 01:23:07;;;;;;;1.00;0.80;;;;;;;7.03;100.00;102043.22;5080181;28;20161;-48
2021/12/15 01:25:39;;;;;;;3.20;1.15;;;;;;;7.04;100.00;102045.72;5087518;28;20039;-48
2021/12/15 01:28:06;;;;;;;2.45;1.48;;;;;;;6.99;100.00;102040.81;5078928;28;20051;-48
2021/12/15 01:30:35;;;;;;;1.90;1.33;;;;;;;6.98;100.00;102054.16;5081179;28;20028;-46
2021/12/15 01:33:03;;;;;;;2.60;2.38;;;;;;;6.97;100.00;102052.50;5086628;28;20069;-47
2021/12/15 01:35:29;;;;;;;8.07;1.92;;;;;;;7.06;100.00;102045.59;5075401;28;20039;-49
2021/12/15 01:37:54;;;;;;;0.90;0.80;;;;;;;7.14;100.00;102053.69;5083338;28;20040;-49
2021/12/15 01:40:36;;;;;;;4.00;1.70;;;;;;;7.16;100.00;102049.13;5075537;28;20032;-48
2021/12/15 01:43:36;;;;;;;3.78;0.93;;;;;;;7.16;100.00;102044.69;5077578;28;20397;-49
2021/12/15 01:49:02;;;;;;;0.93;0.70;;;;;;;7.05;100.00;102036.84;5077929;28;20047;-47
2021/12/15 01:51:28;;;;;;;1.60;0.77;;;;;;;7.05;100.00;102050.03;5083692;28;20104;-47
2021/12/15 01:53:54;;;;;;;1.45;1.35;;;;;;;7.06;100.00;102049.06;5087425;28;20439;-50
2021/12/15 01:56:19;;;;;;;1.65;0.60;;;;;;;7.04;100.00;102045.72;5084619;28;20074;-47
2021/12/15 01:58:45;;;;;;;0.70;0.70;;;;;;;6.95;100.00;102046.50;5077215;28;20035;-48
2021/12/15 02:01:11;;;;;;;2.33;0.75;;;;;;;6.93;100.00;102051.06;5085800;28;20043;-47
2021/12/15 02:03:38;;;;;;;1.10;1.00;;;;;;;7.00;100.00;102054.88;5072675;28;20033;-52
2021/12/15 02:06:05;;;;;;;2.22;1.13;;;;;;;7.00;100.00;102062.78;5086762;28;20394;-46
2021/12/15 02:08:31;;;;;;;2.13;1.23;;;;;;;6.89;100.00;102055.78;5071326;28;20390;-48
2021/12/15 02:10:57;;;;;;;1.88;0.93;;;;;;;6.80;100.00;102058.31;5084517;28;20093;-46
2021/12/15 02:13:22;;;;;;;2.15;0.95;;;;;;;6.73;100.00;102063.25;5085139;28;20486;-52
2021/12/15 02:15:58;;;;;;;2.60;0.82;;;;;;;6.71;100.00;102059.91;5079564;28;20032;-48
2021/12/15 02:18:27;;;;;;;5.80;0.85;;;;;;;6.76;100.00;102066.50;5086332;28;20136;-52
2021/12/15 02:21:00;;;;;;;1.00;0.98;;;;;;;6.82;100.00;102072.22;5085806;28;20458;-49
2021/12/15 02:23:33;;;;;;;1.17;1.02;;;;;;;6.79;100.00;102078.59;5084910;28;20032;-49
2021/12/15 02:26:00;;;;;;;2.15;0.50;;;;;;;6.63;100.00;102079.00;5082411;28;20403;-51
2021/12/15 02:28:26;;;;;;;4.63;0.57;;;;;;;6.43;100.00;102071.88;5079832;28;20032;-48
2021/12/15 02:33:58;;;;;;;0.90;0.85;;;;;;;6.22;100.00;102091.13;5059734;28;20052;-50
2021/12/15 02:39:10;;;;;;;0.55;0.30;;;;;;;6.07;100.00;102093.19;5072571;28;20091;-53
2021/12/15 02:41:37;;;;;;;1.15;0.52;;;;;;;6.05;100.00;102094.25;5085191;28;20040;-49
2021/12/15 02:44:10;;;;;;;1.83;0.95;;;;;;;6.03;100.00;102097.00;5071524;28;20024;-51
2021/12/15 02:46:37;;;;;;;1.02;0.73;;;;;;;6.04;100.00;102097.84;5082610;28;20111;-48
2021/12/15 02:49:05;;;;;;;1.70;0.50;;;;;;;6.05;100.00;102095.09;5085107;28;20036;-47
2021/12/15 02:51:31;;;;;;;1.52;0.43;;;;;;;6.09;100.00;102098.31;5084547;28;20032;-48
2021/12/15 02:53:59;;;;;;;1.98;1.15;;;;;;;6.11;100.00;102106.94;5074948;28;20382;-49
2021/12/15 02:56:25;;;;;;;1.80;0.45;;;;;;;6.13;100.00;102102.38;5082209;28;20119;-48
2021/12/15 02:58:58;;;;;;;2.30;0.50;;;;;;;6.15;100.00;102100.47;5078996;28;20149;-49
2021/12/15 03:01:36;;;;;;;0.95;0.55;;;;;;;6.22;100.00;102093.75;5083968;28;20040;-50
2021/12/15 03:04:24;;;;;;;1.08;0.95;;;;;;;6.24;100.00;102093.63;5078633;28;20473;-47
2021/12/15 03:06:57;;;;;;;3.13;0.75;;;;;;;6.26;100.00;102089.06;5081371;28;20074;-51
2021/12/15 03:17:16;;;;;;;3.92;0.65;;;;;;;6.58;100.00;102091.72;5084518;28;20092;-49
2021/12/15 03:19:41;;;;;;;0.70;0.50;;;;;;;6.60;100.00;102081.88;5073240;28;20543;-48
2021/12/15 03:22:07;;;;;;;0.80;0.80;;;;;;;6.63;100.00;102081.63;5070783;28;20119;-46
2021/12/15 03:24:32;;;;;;;1.70;0.95;;;;;;;6.66;100.00;102086.66;5072418;28;20036;-49
2021/12/15 03:27:05;;;;;;;2.35;0.68;;;;;;;6.65;100.00;102092.88;5075747;28;20097;-48
2021/12/15 03:37:43;;;;;;;2.13;1.65;;;;;;;6.77;100.00;102091.06;5079020;28;20131;-52
2021/12/15 03:40:15;;;;;;;0.43;0.30;;;;;;;6.77;100.00;102085.78;5083236;28;20400;-48
2021/12/15 03:42:47;;;;;;;0.38;0.32;;;;;;;6.85;100.00;102079.88;5077420;28;20459;-47
2021/12/15 03:45:17;;;;;;;0.68;0.47;;;;;;;6.88;100.00;102082.25;5077218;28;20024;-50
2021/12/15 03:47:46;;;;;;;3.03;0.40;;;;;;;6.91;100.00;102079.34;5076257;28;20043;-50
2021/12/15 03:50:15;;;;;;;1.42;0.50;;;;;;;6.97;100.00;102082.31;5079717;28;20038;-50
2021/12/15 03:52:41;;;;;;;1.20;0.55;;;;;;;6.99;100.00;102084.81;5083600;28;20051;-47
2021/12/15 03:55:10;;;;;;;0.95;0.30;;;;;;;7.04;100.00;102082.63;5077058;28;20520;-49
2021/12/15 03:57:36;;;;;;;1.45;0.63;;;;;;;7.04;100.00;102079.16;5067737;28;20040;-50
2021/12/15 04:00:05;;;;;;;1.55;0.60;;;;;;;7.03;100.00;102080.97;5080503;28;20032;-46
2021/12/15 04:02:30;;;;;;;1.33;0.93;;;;;;;7.07;100.00;102085.00;5078563;28;20043;-47
2021/12/15 04:04:56;;;;;;;0.35;0.30;;;;;;;7.15;100.00;102090.50;5079309;28;20028;-46
2021/12/15 04:07:23;;;;;;;0.65;0.55;;;;;;;7.19;100.00;102086.63;5075482;28;20029;-47
2021/12/15 04:09:51;;;;;;;6.28;0.90;;;;;;;7.21;100.00;102087.34;5080807;28;20482;-47
2021/12/15 04:12:17;;;;;;;0.95;0.65;;;;;;;7.22;100.00;102091.63;5085085;28;20035;-48
2021/12/15 04:14:53;;;;;;;0.70;0.30;;;;;;;7.28;100.00;102095.56;5081834;28;20032;-51
2021/12/15 04:17:30;;;;;;;0.55;0.25;;;;;;;7.36;100.00;102094.94;5079203;28;20064;-50
2021/12/15 04:20:05;;;;;;;1.25;0.57;;;;;;;7.35;100.00;102107.25;5080795;28;20501;-50
2021/12/15 04:22:31;;;;;;;1.95;0.35;;;;;;;7.36;100.00;102102.84;5080183;28;20110;-47
2021/12/15 04:24:58;;;;;;;0.70;0.70;;;;;;;7.36;100.00;102100.22;5080154;28;20029;-50
2021/12/15 04:27:23;;;;;;;0.57;0.57;;;;;;;7.33;100.00;102109.22;5074962;28;20051;-47
2021/12/15 04:29:50;;;;;;;0.47;0.20;;;;;;;7.33;100.00;102108.34;5081460;28;20531;-50
2021/12/15 04:32:22;;;;;;;1.17;0.20;;;;;;;7.37;100.00;102115.06;5072993;28;20070;-49
2021/12/15 04:34:47;;;;;;;1.20;0.30;;;;;;;7.40;100.00;102107.72;5076934;28;20025;-52
2021/12/15 04:37:13;;;;;;;0.10;0.10;;;;;;;7.44;100.00;102116.22;5074823;28;20462;-49
2021/12/15 04:39:38;;;;;;;1.63;0.32;;;;;;;7.42;100.00;102112.88;5079931;28;20036;-49
2021/12/15 04:42:05;;;;;;;0.93;0.20;;;;;;;7.43;100.00;102120.66;5083877;28;20067;-48
2021/12/15 04:44:32;;;;;;;3.03;0.30;;;;;;;7.53;100.00;102123.34;5083471;28;20024;-47
2021/12/15 04:47:05;;;;;;;1.85;0.40;;;;;;;7.58;100.00;102120.31;5075590;28;20443;-48
2021/12/15 04:49:36;;;;;;;1.23;0.25;;;;;;;7.71;100.00;102118.28;5082753;28;20560;-51
2021/12/15 04:52:03;;;;;;;6.80;1.23;;;;;;;7.79;100.00;102123.72;5083222;28;20066;-49
2021/12/15 04:54:29;;;;;;;0.40;0.40;;;;;;;7.84;100.00;102118.06;5082487;28;20272;-49
2021/12/15 04:56:54;;;;;;;0.13;0.13;;;;;;;7.92;100.00;102120.88;5079213;28;20047;-51
2021/12/15 04:59:20;;;;;;;0.20;0.20;;;;;;;7.96;100.00;102119.66;5084791;28;20546;-47
2021/12/15 05:01:46;;;;;;;3.60;0.57;;;;;;;8.01;100.00;102125.38;5065504;28;20506;-52
2021/12/15 05:04:12;;;;;;;0.75;0.75;;;;;;;8.11;100.00;102129.84;5088736;28;20495;-50
2021/12/15 05:06:39;;;;;;;0.77;0.10;;;;;;;8.24;100.00;102135.72;5088115;28;20036;-50
2021/12/15 05:09:05;;;;;;;3.75;0.08;;;;;;;8.46;100.00;102132.88;5070702;28;20051;-51
2021/12/15 05:11:32;;;;;;;1.35;0.20;;;;;;;8.49;100.00;102134.41;5069979;28;20032;-50
2021/12/15 05:13:57;;;;;;;2.05;0.80;;;;;;;8.47;100.00;102136.38;5070056;28;20033;-47
2021/12/15 05:16:23;;;;;;;0.88;0.47;;;;;;;8.46;100.00;102134.69;5078969;28;20438;-50
2021/12/15 05:18:49;;;;;;;1.23;0.10;;;;;;;8.55;100.00;102130.41;5087114;28;20040;-49
2021/12/15 05:21:15;;;;;;;3.88;0.10;;;;;;;8.58;100.00;102133.59;5073121;28;20127;-49
2021/12/15 05:23:47;;;;;;;5.57;0.25;;;;;;;8.73;100.00;102136.66;5071809;28;20600;-48
2021/12/15 05:26:13;;;;;;;0.43;0.30;;;;;;;8.78;100.00;102128.28;5072898;28;20477;-49
2021/12/15 05:28:38;;;;;;;1.45;0.28;;;;;;;8.73;100.00;102134.03;5082751;28;20032;-53
2021/12/15 05:31:04;;;;;;;2.80;0.10;;;;;;;8.82;100.00;102132.34;5074294;28;20147;-49
2021/12/15 05:33:29;;;;;;;0.28;0.15;;;;;;;8.86;100.00;102131.94;5069093;28;20025;-47
2021/12/15 05:35:56;;;;;;;3.30;0.82;;;;;;;8.85;100.00;102122.31;5069718;28;20669;-49
2021/12/15 05:38:22;;;;;;;0.30;0.10;;;;;;;8.80;100.00;102132.47;5079915;28;20548;-47
2021/12/15 05:40:48;;;;;;;3.58;0.95;;;;;;;8.77;100.00;102135.41;5075864;28;20044;-47
2021/12/15 05:43:13;;;;;;;2.67;0.28;;;;;;;8.83;100.00;102132.22;5069023;28;20036;-50
2021/12/15 05:45:41;;;;;;;0.45;0.10;;;;;;;8.91;100.00;102128.88;5069472;28;20028;-48
2021/12/15 05:48:10;;;;;;;5.25;0.10;;;;;;;8.85;100.00;102137.34;5076236;28;20036;-50
2021/12/15 05:50:36;;;;;;;2.72;0.30;;;;;;;8.86;100.00;102141.69;5077906;28;20626;-51
2021/12/15 05:53:02;;;;;;;0.38;0.30;;;;;;;8.91;100.00;102140.28;5081012;28;20035;-51
2021/12/15 05:55:28;;;;;;;0.20;0.10;;;;;;;9.01;100.00;102134.16;5078752;28;20366;-49
2021/12/15 05:57:54;;;;;;;0.20;0.20;;;;;;;9.05;100.00;102136.38;5074438;28;20032;-50
2021/12/15 06:00:25;;;;;;;0.38;0.15;;;;;;;9.00;100.00;102138.59;5080280;28;20028;-51
2021/12/15 06:02:50;;;;;;;2.07;0.20;;;;;;;8.99;100.00;102129.00;5071345;28;20493;-47
2021/12/15 06:05:16;;;;;;;1.45;0.20;;;;;;;8.99;100.00;102138.75;5088009;28;20276;-47
2021/12/15 06:07:41;;;;;;;1.35;0.20;;;;;;;9.10;100.00;102128.03;5084537;28;20564;-51
2021/12/15 06:10:10;;;;;;;1.88;0.15;;;;;;;9.08;100.00;102141.38;5087284;28;20518;-51
2021/12/15 06:12:36;;;;;;;0.90;0.20;;;;;;;9.02;100.00;102141.94;5080738;28;20025;-50
2021/12/15 06:15:03;;;;;;;1.52;0.08;;;;;;;9.04;100.00;102139.19;5067718;28;20033;-49
2021/12/15 06:17:29;;;;;;;0.80;0.55;;;;;;;9.05;100.00;102135.53;5069340;28;20033;-49
2021/12/15 06:19:56;;;;;;;1.90;0.32;;;;;;;9.08;100.00;102156.44;5083093;28;20489;-50
2021/12/15 06:22:26;;;;;;;0.30;0.00;;;;;;;9.15;100.00;102153.09;5084472;28;20032;-52
2021/12/15 06:24:53;;;;;;;0.32;0.00;;;;;;;9.15;100.00;102142.50;5083646;28;20033;-51
2021/12/15 06:27:20;;;;;;;2.28;0.20;;;;;;;9.24;100.00;102127.59;5067922;28;20033;-48
2021/12/15 06:29:48;;;;;;;2.30;0.63;;;;;;;9.46;100.00;102122.94;5070286;28;20028;-46
2021/12/15 06:32:14;;;;;;;1.83;0.20;;;;;;;9.42;100.00;102125.03;5080141;28;20036;-50
2021/12/15 06:34:39;;;;;;;2.28;0.38;;;;;;;9.30;100.00;102124.38;5067858;28;20085;-48
2021/12/15 06:37:05;;;;;;;2.65;0.10;;;;;;;9.35;100.00;102131.88;5068222;28;20032;-49
2021/12/15 06:39:31;;;;;;;0.65;0.10;;;;;;;9.31;100.00;102144.56;5069469;28;20040;-48
2021/12/15 06:41:56;;;;;;;1.17;0.25;;;;;;;9.24;100.00;102148.78;5079387;28;20058;-47
2021/12/15 06:44:22;;;;;;;0.30;0.00;;;;;;;9.23;100.00;102148.91;5067674;28;20473;-48
2021/12/15 06:47:16;;;;;;;2.45;0.17;;;;;;;9.32;100.00;102148.88;5067325;28;20075;-47
2021/12/15 07:00:29;;;;;;;0.47;0.13;;;;;;;8.94;100.00;102171.75;5070304;28;20026;-50
2021/12/15 07:02:56;;;;;;;3.05;0.80;;;;;;;8.91;100.00;102177.31;5081301;28;20109;-50
2021/12/15 07:05:23;;;;;;;0.75;0.13;;;;;;;9.04;100.00;102170.94;5079185;28;20025;-48
2021/12/15 07:07:50;;;;;;;1.42;0.77;;;;;;;9.12;100.00;102176.34;5066991;28;20028;-48
2021/12/15 07:10:20;;;;;;;0.10;0.10;;;;;;;9.16;100.00;102180.38;5071683;28;20041;-48
2021/12/15 07:12:47;;;;;;;0.98;0.20;;;;;;;9.10;100.00;102180.94;5081499;28;20030;-50
2021/12/15 07:15:12;;;;;;;3.10;0.10;;;;;;;9.03;100.00;102182.47;5079429;28;20040;-47
2021/12/15 07:17:39;;;;;;;0.85;0.65;;;;;;;8.99;100.00;102181.09;5084067;28;20031;-53
2021/12/15 07:20:32;;;;;;;1.23;0.13;;;;;;;8.98;100.00;102195.28;5075621;28;20047;-53
2021/12/15 07:22:53;;;;;;;0.30;0.30;;;;;;;8.94;100.00;102189.44;5069942;28;20191;-47
2021/12/15 07:25:19;;;;;;;0.40;0.10;;;;;;;8.92;100.00;102199.31;5083805;28;20031;-48
2021/12/15 07:27:44;;;;;;;2.60;0.28;;;;;;;8.93;100.00;102193.03;5078609;28;20037;-51
2021/12/15 07:30:11;;;;;;;4.18;0.20;;;;;;;8.92;100.00;102196.66;5078116;28;20036;-46
2021/12/15 07:32:37;;;;;;;0.60;0.30;;;;;;;8.88;100.00;102201.41;5082711;28;20477;-47
2021/12/15 07:35:03;;;;;;;0.70;0.32;;;;;;;8.86;100.00;102198.06;5081425;28;20033;-52
2021/12/15 07:37:29;;;;;;;0.70;0.15;;;;;;;8.86;100.00;102203.34;5076623;28;20131;-48
2021/12/15 07:39:58;;;;;;;2.17;0.20;;;;;;;8.88;100.00;102208.50;5082351;28;20511;-49
2021/12/15 07:42:33;;;;;;;0.95;0.20;;;;;;;8.87;100.00;102207.66;5079509;28;20159;-50
2021/12/15 07:44:59;;;;;;;3.70;0.20;;;;;;;8.88;100.00;102205.84;5084532;28;20136;-50
2021/12/15 07:47:24;;;;;;;4.82;0.52;;;;;;;8.90;100.00;102210.03;5082746;28;20043;-47
2021/12/15 07:49:50;;;;;;;3.90;0.68;;;;;;;8.94;100.00;102210.59;5080893;28;20114;-49
2021/12/15 07:52:16;;;;;;;1.67;0.60;;;;;;;9.02;100.00;102204.63;5078587;28;20091;-48
2021/12/15 07:54:41;;;;;;;1.80;0.57;;;;;;;9.07;100.00;102208.53;5078797;28;20028;-47
2021/12/15 07:57:10;;;;;;;1.52;0.47;;;;;;;9.09;100.00;102217.16;5076298;28;20477;-49
2021/12/15 07:59:36;;;;;;;0.90;0.20;;;;;;;9.14;100.00;102219.41;5082433;28;20044;-50
2021/12/15 08:02:02;;;;;;;0.50;0.35;;;;;;;9.14;100.00;102229.97;5083565;28;20161;-47
2021/12/15 08:04:28;;;;;;;3.67;0.63;;;;;;;9.08;100.00;102225.22;5079773;28;20498;-47
2021/12/15 08:06:53;;;;;;;0.95;0.65;;;;;;;9.06;100.00;102233.31;5082144;28;20040;-51
2021/12/15 08:09:20;;;;;;;0.82;0.40;;;;;;;9.04;100.00;102237.09;5077081;28;20059;-51
2021/12/15 08:11:46;;;;;;;0.65;0.52;;;;;;;9.02;100.00;102242.50;5079111;28;20021;-49
2021/12/15 08:14:11;;;;;;;1.52;0.22;;;;;;;9.03;100.00;102238.03;5083922;28;20031;-50
2021/12/15 08:16:37;;;;;;;3.00;0.63;;;;;;;9.04;100.00;102240.56;5080847;28;20036;-48
2021/12/15 08:19:02;;;;;;;1.05;0.60;;;;;;;9.11;100.00;102241.69;5076412;28;20525;-51
2021/12/15 08:21:28;;;;;;;1.75;0.38;;;;;;;9.18;100.00;102234.84;5079445;28;20497;-54
2021/12/15 08:23:54;;;;;;;2.35;0.40;;;;;;;9.23;100.00;102241.53;5081012;28;20038;-50
2021/12/15 08:26:20;;;;;;;2.33;0.47;;;;;;;9.23;100.00;102234.41;5080863;28;20551;-48
2021/12/15 08:28:46;;;;;;;0.60;0.32;;;;;;;9.23;100.00;102239.72;5078512;28;20031;-47
2021/12/15 08:31:11;;;;;;;1.17;0.20;;;;;;;9.22;100.00;102248.66;5076397;28;20385;-49
2021/12/15 08:33:37;;;;;;;2.60;0.50;;;;;;;9.26;100.00;102246.53;5080809;28;20459;-51
2021/12/15 08:36:07;;;;;;;2.50;0.85;;;;;;;9.25;100.00;102248.38;5082865;28;20618;-51
2021/12/15 08:38:36;;;;;;;2.85;0.40;;;;;;;9.25;100.00;102258.94;5078942;28;20461;-49
2021/12/15 08:41:09;;;;;;;3.42;1.05;;;;;;;9.27;100.00;102259.66;5077145;28;20032;-49
2021/12/15 08:43:35;;;;;;;1.58;0.80;;;;;;;9.28;100.00;102250.72;5076669;28;20035;-50
2021/12/15 08:46:05;;;;;;;2.15;0.20;;;;;;;9.28;100.00;102252.53;5088545;28;20035;-47
2021/12/15 08:48:32;;;;;;;2.75;1.10;;;;;;;9.26;100.00;102251.84;5088250;28;20197;-48
2021/12/15 08:50:58;;;;;;;4.90;0.57;;;;;;;9.29;100.00;102262.16;5082900;28;20032;-51
2021/12/15 08:53:24;;;;;;;2.38;0.65;;;;;;;9.28;100.00;102269.25;5088655;28;20515;-50
2021/12/15 08:55:50;;;;;;;3.17;0.73;;;;;;;9.28;100.00;102261.31;5086615;28;20028;-47
2021/12/15 08:58:18;;;;;;;1.17;1.08;;;;;;;9.30;100.00;102264.66;5077807;28;20032;-48
2021/12/15 09:00:45;;;;;;;2.58;0.63;;;;;;;9.36;100.00;102265.91;5079234;28;20480;-49
2021/12/15 09:03:13;;;;;;;3.58;0.73;;;;;;;9.41;100.00;102268.16;5086348;28;20020;-50
2021/12/15 09:05:39;;;;;;;2.63;0.70;;;;;;;9.43;100.00;102268.84;5080819;28;20040;-49
2021/12/15 09:08:05;;;;;;;1.30;0.43;;;;;;;9.47;100.00;102278.16;5076111;28;20040;-47
2021/12/15 09:10:33;;;;;;;2.10;0.45;;;;;;;9.47;100.00;102276.34;5084885;28;20024;-47
2021/12/15 09:12:59;;;;;;;2.75;0.65;;;;;;;9.48;100.00;102277.22;5084239;28;20070;-49
2021/12/15 09:15:25;;;;;;;4.07;0.70;;;;;;;9.48;100.00;102278.03;5081976;28;20107;-49
2021/12/15 09:17:51;;;;;;;0.82;0.43;;;;;;;9.50;100.00;102281.41;5078202;28;20166;-50
2021/12/15 09:20:20;;;;;;;5.03;2.13;;;;;;;9.52;100.00;102271.47;5079526;28;20028;-48
2021/12/15 09:22:46;;;;;;;2.03;0.90;;;;;;;9.63;100.00;102282.91;5077532;28;20633;-49
2021/12/15 09:25:13;;;;;;;2.63;1.10;;;;;;;9.66;100.00;102283.47;5088058;28;20040;-53
2021/12/15 09:27:39;;;;;;;2.88;0.73;;;;;;;9.70;100.00;102282.19;5084544;28;20518;-50
2021/12/15 09:30:13;;;;;;;4.90;0.60;;;;;;;9.73;100.00;102283.72;5087259;28;20040;-52
2021/12/15 09:32:39;;;;;;;2.90;1.70;;;;;;;9.85;100.00;102287.91;5086157;28;20036;-49
2021/12/15 09:35:06;;;;;;;1.30;0.90;;;;;;;9.88;100.00;102284.13;5085856;28;20508;-50
2021/12/15 09:37:32;;;;;;;2.22;1.02;;;;;;;9.94;100.00;102281.75;5086617;28;20028;-48
2021/12/15 09:39:58;;;;;;;1.20;0.60;;;;;;;9.95;100.00;102287.88;5081664;28;20032;-53
2021/12/15 09:42:30;;;;;;;2.30;1.27;;;;;;;9.98;100.00;102290.25;5085087;28;20059;-48
2021/12/15 09:45:17;;;;;;;3.05;0.85;;;;;;;10.03;100.00;102285.34;5083087;28;20032;-50
2021/12/15 10:17:40;;;;;;;1.88;0.32;;;;;;;10.41;100.00;102315.41;5087815;28;20435;-47
2021/12/15 10:20:07;;;;;;;3.72;1.05;;;;;;;10.45;100.00;102314.13;5082650;28;20412;-48
2021/12/15 10:22:43;;;;;;;3.05;1.10;;;;;;;10.46;100.00;102311.34;5084304;28;20093;-52
2021/12/15 10:25:17;;;;;;;3.70;0.70;;;;;;;10.44;100.00;102317.78;5083640;28;20028;-49
2021/12/15 10:27:45;;;;;;;0.90;0.88;;;;;;;10.49;100.00;102312.88;5078383;28;20036;-49
2021/12/15 10:30:25;;;;;;;4.75;0.65;;;;;;;10.54;100.00;102315.91;5083056;28;20043;-52
2021/12/15 10:33:08;;;;;;;3.00;0.95;;;;;;;10.59;100.00;102318.13;5085076;28;20028;-48
2021/12/15 10:35:44;;;;;;;1.50;0.63;;;;;;;10.63;100.00;102312.38;5071231;28;20035;-52
2021/12/15 10:38:27;;;;;;;6.43;2.20;;;;;;;10.66;100.00;102317.41;5077947;28;20032;-47
2021/12/15 10:41:05;;;;;;;4.97;0.82;;;;;;;10.70;100.00;102321.41;5073618;28;20075;-49
2021/12/15 10:43:52;;;;;;;2.10;0.47;;;;;;;10.69;100.00;102322.41;5080595;28;20051;-48
2021/12/15 10:46:27;;;;;;;2.92;0.77;;;;;;;10.69;100.00;102321.59;5082069;28;20542;-51
2021/12/15 10:48:59;;;;;;;3.08;0.75;;;;;;;10.66;100.00;102335.97;5076476;28;20125;-50
2021/12/15 10:51:36;;;;;;;2.00;1.15;;;;;;;10.67;100.00;102328.84;5081205;28;20032;-48
2021/12/15 10:54:31;;;;;;;4.25;1.25;;;;;;;10.67;100.00;102340.28;5082220;28;20039;-50
2021/12/15 10:56:57;;;;;;;2.10;0.30;;;;;;;10.69;100.00;102337.50;5078123;28;20040;-52
2021/12/15 10:59:24;;;;;;;3.97;0.68;;;;;;;10.73;100.00;102336.22;5083511;28;20036;-52
2021/12/15 11:02:02;;;;;;;2.92;1.40;;;;;;;10.73;100.00;102333.56;5080869;28;20745;-50
2021/12/15 11:04:39;;;;;;;4.22;1.58;;;;;;;10.76;100.00;102330.59;5085615;28;20070;-54
2021/12/15 11:07:04;;;;;;;2.72;1.23;;;;;;;10.77;100.00;102319.03;5077579;28;20511;-48
2021/12/15 11:10:05;;;;;;;6.07;2.47;;;;;;;10.79;100.00;102326.81;5080240;28;20028;-47
2021/12/15 11:12:37;;;;;;;5.90;2.03;;;;;;;10.81;100.00;102322.22;5083086;28;20408;-47
2021/12/15 11:15:14;;;;;;;2.78;1.45;;;;;;;10.81;100.00;102322.22;5075917;28;20039;-51
2021/12/15 11:17:48;;;;;;;4.57;1.33;;;;;;;10.81;100.00;102311.59;5073533;28;20036;-48
2021/12/15 11:20:27;;;;;;;3.83;1.48;;;;;;;10.82;100.00;102305.31;5080277;28;20469;-49
2021/12/15 11:22:58;;;;;;;10.98;1.92;;;;;;;10.90;100.00;102303.59;5074398;28;20131;-51
2021/12/15 11:25:32;;;;;;;7.63;1.20;;;;;;;10.90;100.00;102305.41;5080750;28;20032;-50
2021/12/15 11:28:00;;;;;;;1.73;1.38;;;;;;;10.96;100.00;102310.13;5080185;28;20042;-53
2021/12/15 11:30:53;;;;;;;2.83;1.98;;;;;;;10.99;100.00;102303.69;5084352;28;20477;-51
2021/12/15 11:33:19;;;;;;;4.65;1.30;;;;;;;11.01;100.00;102291.09;5079462;28;20063;-52
2021/12/15 11:36:07;;;;;;;6.93;1.33;;;;;;;11.05;100.00;102303.94;5085552;28;20035;-51
2021/12/15 11:38:39;;;;;;;2.10;1.13;;;;;;;11.03;100.00;102311.19;5046911;28;20043;-49
2021/12/15 11:41:10;;;;;;;16.42;3.10;;;;;;;11.00;100.00;102306.19;5079146;28;20081;-52
2021/12/15 11:43:51;;;;;;;4.13;1.52;;;;;;;11.01;100.00;102302.53;5079391;28;20443;-52
2021/12/15 11:46:42;;;;;;;3.33;1.00;;;;;;;11.04;100.00;102306.72;5080021;28;20027;-52
2021/12/15 11:49:25;;;;;;;2.90;0.68;;;;;;;11.06;100.00;102294.97;5076729;28;20097;-52
2021/12/15 11:52:03;;;;;;;1.48;0.98;;;;;;;11.07;100.00;102286.00;5080789;28;20020;-50
2021/12/15 11:54:35;;;;;;;4.55;2.10;;;;;;;11.11;100.00;102303.31;5077155;28;20028;-49
2021/12/15 11:57:14;;;;;;;1.95;0.77;;;;;;;11.17;100.00;102277.16;5083910;28;20032;-47
2021/12/15 11:59:43;;;;;;;4.20;1.58;;;;;;;11.24;100.00;102291.50;5084606;28;20124;-51
2021/12/15 12:02:37;;;;;;;2.88;0.88;;;;;;;11.26;100.00;102302.81;5081068;28;20051;-48
2021/12/15 12:05:22;;;;;;;3.80;0.70;;;;;;;11.23;100.00;102293.31;5084693;28;20064;-52
2021/12/15 12:07:55;;;;;;;1.15;0.50;;;;;;;11.27;100.00;102291.19;5081975;28;20047;-51
2021/12/15 12:10:45;;;;;;;4.28;0.90;;;;;;;11.25;100.00;102296.63;5080579;28;21179;-51
2021/12/15 12:13:19;;;;;;;1.77;0.60;;;;;;;11.23;100.00;102289.81;5075760;28;20039;-49
2021/12/15 12:15:47;;;;;;;5.88;0.35;;;;;;;11.21;100.00;102287.31;5083928;28;20028;-52
2021/12/15 12:18:17;;;;;;;10.10;1.98;;;;;;;11.20;100.00;102282.97;5088333;28;20514;-52
2021/12/15 12:20:55;;;;;;;2.95;1.05;;;;;;;11.17;100.00;102282.47;5086514;28;20036;-52
2021/12/15 12:23:27;;;;;;;3.58;0.43;;;;;;;11.16;100.00;102288.78;5083314;28;20119;-49
2021/12/15 12:25:56;;;;;;;5.85;0.73;;;;;;;11.19;100.00;102283.97;5075110;28;20035;-49
2021/12/15 12:28:26;;;;;;;2.80;0.88;;;;;;;11.17;100.00;102287.78;5087750;28;20401;-52
2021/12/15 12:30:55;;;;;;;2.78;1.48;;;;;;;11.14;100.00;102287.06;5084881;28;20028;-52
2021/12/15 12:33:23;;;;;;;3.00;0.80;;;;;;;11.13;100.00;102285.41;5086998;28;20046;-52
2021/12/15 12:36:14;;;;;;;2.63;1.27;;;;;;;11.16;100.00;102294.06;5084150;28;20035;-52
2021/12/15 12:38:48;;;;;;;1.60;0.40;;;;;;;11.21;100.00;102292.63;5086662;28;20105;-49
2021/12/15 12:41:20;;;;;;;1.77;0.60;;;;;;;11.24;100.00;102291.50;5082574;28;20064;-49
2021/12/15 12:43:50;;;;;;;3.20;1.08;;;;;;;11.27;100.00;102285.88;5080584;28;20036;-50
2021/12/15 13:00:49;;;;;;;6.20;1.13;;;;;;;11.26;100.00;102302.81;5066153;28;20379;-52
2021/12/15 13:03:36;;;;;;;2.05;0.75;;;;;;;11.26;100.00;102294.84;5079320;28;20043;-49